Observations for VALLEY RAF, United Kingdom (EGOV)

EGOV 220450Z AUTO 18005KT 7000 BR OVC002/// 16/16 Q1018 
EGOV 220350Z AUTO 18008KT 3400 BR OVC001/// 16/15 Q1018 
EGOV 220250Z AUTO 19011KT 6000 BR OVC002/// 16/15 Q1018 
EGOV 220150Z AUTO 19012KT 9999 BKN003/// BKN080/// 16/15 Q1018  
EGOV 220050Z AUTO 19013KT 9999 FEW004/// BKN070/// 16/15 Q1018  
EGOV 212350Z AUTO 19014KT 9999 FEW004/// OVC036/// 16/15 Q1019  
EGOV 212250Z AUTO 18014KT 9999 FEW004/// OVC070/// 16/16 Q1019  
EGOV 212150Z AUTO 17014KT 9999 OVC004/// 16/16 Q1019
EGOV 212050Z AUTO 17014KT 9999 OVC004/// 16/16 Q1019
EGOV 211950Z 16012KT 9999 OVC003 16/16 Q1019 YLO2   
EGOV 211850Z 17013KT 9999 FEW002 OVC003 17/16 Q1019 YLO2
EGOV 211750Z 17016KT 8000 BR OVC002 17/16 Q1018 AMB 
EGOV 211650Z 18012KT 9999 FEW002 OVC003 17/16 Q1019 YLO2 NOSIG  
EGOV 211550Z 17015KT 9999 FEW002 BKN003 17/16 Q1019 YLO2 TEMPO FEW003 BKN010 GRN
EGOV 211437Z 17015KT 9999 BKN003 17/16 Q1019 YLO2 TEMPO FEW003 BKN010 GRN   
EGOV 211437Z 17015KT 9999 BKN003 17/16 Q1019 YLO2 TEMPO FEW003 BKN010 GRN
EGOV 211350Z 17014KT 9999 BKN002 OVC010 17/16 Q1019 AMB BECMG FEW002 BKN007 GRN 
EGOV 211250Z 18014KT 9000 4000W BR BKN002 OVC008 17/16 Q1019 AMB TEMPO 0500 FG BKN000 RED   
EGOV 211205Z 15011KT 3500 DZ BKN002 OVC008 17/17 Q1019 AMB BECMG 0500 FG BKN001RED
EGOV 211222Z 15012KT 9000 BR FEW002 SCT004 OVC008 17/17 Q1019 YLO2 TEMPO 0600 FG OVC000 RED
EGOV 211205Z 15011KT 3500 DZ BKN002 OVC008 17/17 Q1019 AMB BECMG 0500 FG BKN001 RED 
EGOV 211150Z 15012KT 9999 4000W -RADZ FEW003 OVC011 18/17 Q1019 GRN TEMPO 3000 BR SCT003 YLO2   
EGOV 211125Z 15008KT 8000 5000NW -RADZ FEW001 SCT003 OVC011 17/16 Q1019 YLO2 TEMPO 3000 DZ SCT001 RED   
EGOV 211125Z 15008KT 8000 5000NW -RADZ FEW001 SCT003 OVC011 17/16 Q1019 YLO2 TEMPO 3000 DZ SCT001 RED
EGOV 211057Z 16008KT 3500 -DZ SCT001 BKN005 OVC015 17/16 Q1019 RED BECMG 0500 FG OVC000 
EGOV 211057Z 16008KT 3500 -DZ SCT001 BKN005 OVC015 17/16 Q1019 RED BECMG 0500 FG OVC000
EGOV 211033Z 16009KT 6000 -DZ FEW003 SCT006 OVC015 17/16 Q1019 YLO1 TEMPO 3000 DZ SCT003 YLO2
EGOV 211038Z 16009KT 2500 DZ FEW003 SCT005 OVC015 17/16 Q1019 YLO1 BECMG 0500 FG OVC000 RED
EGOV 211033Z 16009KT 6000 -DZ FEW003 SCT006 OVC015 17/16 Q1019 YLO1 TEMPO 3000 DZ SCT003 YLO2   
EGOV 210950Z 15008KT 9999 FEW003 SCT010 OVC025 17/16 Q1019 GRN BECMG BKN005 YLO1
EGOV 210850Z 13006KT 9999 -RA SCT012 BKN050 OVC090 17/15 Q1019 GRN BECMG SCT005 YLO1
EGOV 210750Z 11004KT 9999 -RA SCT016 OVC060 16/14 Q1019 WHT TEMPO 5000 RA SCT012 GRN
EGOV 210718Z 09004KT 9999 SCT016 OVC170 14/13 Q1019 WHT TEMPO 7000 RA SCT012 GRN
EGOV 210718Z 09004KT 9999 SCT016 OVC170 14/13 Q1019 WHT TEMPO 7000 RA SCT012 GRN
EGOV 210650Z 05003KT 9999 FEW012 SCT060 OVC170 14/13 Q1019 BLU TEMPO 7000 RA SCT012 GRN 
EGOV 210550Z 05003KT 9999 FEW008 SCT070 OVC170 12/12 Q1019 BLU NOSIG
EGOV 210450Z AUTO 05003KT 9999 FEW070/// BKN140/// 12/12 Q1018